Latest Weather Observations for Port Fairy

IDV60801

Issued at 7:02 am EDT Saturday 16 October 2021 (issued every 10 minutes, with the page automatically refreshed every 10 minutes)

About weather observations | Map of weather stations | Latest weather observations for VIC | Other Formats
Station Details ID: 090175 Name: PORT FAIRY AWS Lat: -38.39 Lon: 142.23 Height: 10.0 m
Data from the previous 72 hours. | See also: Recent months at Port Fairy
Date/Time
EDT
Temp
°C
App
Temp
°C
Dew
Point
°C
Rel
Hum
%
Delta-T
°C
Wind Press
QNH
hPa
Press
MSL
hPa
Rain since
9am
mm
Dir  Spd
km/h
Gust
km/h
Spd
kts
Gust
kts
16/07:00am 12.1 5.5 7.6 74 2.2 SW 32 44 17 24 1010.7 1010.7 0.4
16/06:30am 12.2 6.0 7.7 74 2.2 SW 30 43 16 23 1010.1 1010.1 0.4
16/06:00am 11.9 4.8 6.6 70 2.5 SW 33 46 18 25 1009.8 1009.8 0.4
16/05:30am 12.2 4.7 7.9 75 2.1 SW 37 52 20 28 1009.3 1009.3 0.4
16/05:00am 12.2 5.5 8.3 77 1.9 SW 33 48 18 26 1009.3 1009.3 0.4
16/04:30am 12.3 5.5 9.3 82 1.5 SW 35 48 19 26 1009.2 1009.2 0.4
16/04:00am 12.2 5.3 8.9 80 1.7 SW 35 48 19 26 1008.9 1008.9 0.4
16/03:30am 12.2 5.0 9.0 81 1.6 SW 37 50 20 27 1008.8 1008.8 0.4
16/03:00am 12.2 4.3 9.2 82 1.5 SW 41 52 22 28 1008.7 1008.7 0.4
16/02:30am 12.0 4.5 9.4 84 1.3 SW 39 56 21 30 1008.5 1008.5 0.4
16/02:00am 12.4 4.7 8.7 78 1.8 SW 39 54 21 29 1008.5 1008.5 0.4
16/01:30am 12.6 4.5 8.5 76 2.0 SW 41 57 22 31 1008.5 1008.5 0.4
16/01:00am 12.5 4.1 8.8 78 1.9 SW 43 56 23 30 1008.5 1008.5 0.4
16/12:30am 12.5 4.0 8.4 76 2.0 SW 43 56 23 30 1008.4 1008.4 0.4
16/12:00am 12.4 3.3 8.5 77 1.9 SW 46 61 25 33 1008.2 1008.2 0.4
 
Date/Time
EDT
Temp
°C
App
Temp
°C
Dew
Point
°C
Rel
Hum
%
Delta-T
°C
Wind Press
QNH
hPa
Press
MSL
hPa
Rain since
9am
mm
Dir  Spd
km/h
Gust
km/h
Spd
kts
Gust
kts
15/11:31pm 12.6 4.1 8.7 77 1.9 SW 43 63 23 34 1008.2 1008.2 0.4
15/11:30pm 12.7 4.3 9.0 78 1.9 SW 43 57 23 31 1008.2 1008.2 0.4
15/11:00pm 12.7 3.9 8.0 73 2.3 SW 44 61 24 33 1008.0 1008.0 0.4
15/10:30pm 12.8 4.5 9.3 79 1.8 SW 43 61 23 33 1007.8 1007.8 0.4
15/10:20pm 12.9 4.6 9.5 80 1.7 SW 43 61 23 33 1007.8 1007.8 0.4
15/10:00pm 12.6 3.6 8.7 77 2.0 SW 46 61 25 33 1007.6 1007.6 0.4
15/09:30pm 12.8 3.9 9.1 78 1.9 SW 46 61 25 33 1007.5 1007.5 0.4
15/09:01pm 12.6 4.1 9.2 80 1.7 SW 44 63 24 34 1007.2 1007.2 0.4
15/09:00pm 12.5 3.5 9.0 79 1.8 SW 46 63 25 34 1007.2 1007.2 0.4
15/08:30pm 12.5 4.1 9.1 80 1.7 SW 43 63 23 34 1006.6 1006.6 0.4
15/08:20pm 12.6 4.1 8.7 77 1.9 SW 43 63 23 34 1006.4 1006.4 0.4
15/08:00pm 12.6 3.5 8.3 75 2.1 SW 46 59 25 32 1006.2 1006.2 0.4
15/07:30pm 12.6 3.9 8.3 75 2.1 SW 44 61 24 33 1005.9 1005.9 0.4
15/07:00pm 12.5 4.0 8.6 77 1.9 SW 43 65 23 35 1005.6 1005.6 0.4
15/06:57pm 12.7 4.8 9.2 79 1.8 SW 41 61 22 33 1005.6 1005.6 0.4
15/06:30pm 12.4 4.0 9.1 80 1.7 SW 43 57 23 31 1005.4 1005.4 0.4
15/06:00pm 12.1 4.6 9.3 83 1.4 SW 39 56 21 30 1005.1 1005.1 0.4
15/05:30pm 11.8 4.6 10.5 92 0.7 SW 39 57 21 31 1005.0 1005.0 0.4
15/05:20pm 11.7 4.7 10.1 90 0.8 SW 37 56 20 30 1004.9 1004.9 0.4
15/05:00pm 11.8 4.8 10.0 89 0.9 SW 37 54 20 29 1004.8 1004.8 0.4
15/04:42pm 11.5 4.3 10.6 94 0.5 SW 39 57 21 31 1004.7 1004.7 0.4
15/04:30pm 11.4 3.8 10.5 94 0.5 SW 41 56 22 30 1004.7 1004.7 0.2
15/04:00pm 11.9 4.8 11.0 94 0.5 SW 39 54 21 29 1004.6 1004.6 0.2
15/03:41pm 12.9 6.8 10.3 84 1.3 SW 33 54 18 29 1004.6 1004.6 0.0
15/03:30pm 13.3 6.6 9.5 78 1.9 SW 35 44 19 24 1004.6 1004.6 0.0
15/03:00pm 13.2 7.2 10.0 81 1.7 SW 32 48 17 26 1004.8 1004.8 0.0
15/02:30pm 14.1 7.4 9.7 75 2.3 SW 35 48 19 26 1004.8 1004.8 0.0
15/02:00pm 14.0 7.7 9.8 76 2.2 SW 33 46 18 25 1004.7 1004.7 0.0
15/01:30pm 12.8 5.8 10.0 83 1.4 SW 37 50 20 27 1004.8 1004.8 0.0
15/01:00pm 12.6 5.3 10.1 85 1.3 SW 39 50 21 27 1005.0 1005.0 0.0
15/12:30pm 13.4 7.1 9.6 78 1.9 SW 33 44 18 24 1004.8 1004.8 0.0
15/12:00pm 12.2 4.6 8.9 80 1.7 SW 39 54 21 29 1004.9 1004.9 0.0
15/11:30am 12.4 6.4 10.8 90 0.8 SW 33 44 18 24 1005.0 1005.0 0.0
15/11:21am 12.4 5.7 11.0 91 0.7 SW 37 56 20 30 1004.9 1004.9 0.0
15/11:00am 12.5 5.9 11.4 93 0.6 SW 37 50 20 27 1004.9 1004.9 0.0
15/10:54am 12.3 6.6 11.2 93 0.6 SW 32 50 17 27 1004.9 1004.9 0.0
15/10:30am 13.1 8.4 12.0 93 0.6 WSW 28 35 15 19 1004.8 1004.8 0.0
15/10:00am 12.4 8.3 11.5 94 0.5 W 24 33 13 18 1005.1 1005.1 0.0
15/09:30am 12.6 7.0 10.0 84 1.3 WSW 30 39 16 21 1005.2 1005.2 0.0
15/09:00am 12.4 6.2 9.4 82 1.5 WSW 32 41 17 22 1005.3 1005.3 3.6
15/08:30am 12.1 7.1 9.5 84 1.3 WSW 26 35 14 19 1005.3 1005.3 3.6
15/08:00am 11.9 7.6 9.5 85 1.2 WSW 22 30 12 16 1005.5 1005.5 3.6
15/07:30am 11.8 7.9 9.4 85 1.2 SW 20 28 11 15 1005.4 1005.4 3.6
15/07:00am 11.8 7.9 9.5 86 1.2 SW 20 30 11 16 1005.1 1005.1 3.6
15/06:30am 11.7 7.7 9.1 84 1.3 SW 20 26 11 14 1004.8 1004.8 3.6
15/06:00am 11.8 7.5 9.4 85 1.2 SSW 22 30 12 16 1004.8 1004.8 3.6
15/05:30am 12.0 8.7 9.6 85 1.2 SSW 17 22 9 12 1004.6 1004.6 3.6
15/05:00am 11.8 8.8 9.4 85 1.2 SSW 15 20 8 11 1004.5 1004.5 3.6
15/04:30am 11.7 9.5 9.4 86 1.2 S 11 15 6 8 1004.3 1004.3 3.6
15/04:00am 11.5 9.6 9.1 85 1.2 SSE 9 13 5 7 1004.3 1004.3 3.6
15/03:30am 11.4 10.0 9.5 88 1.0 S 7 13 4 7 1004.2 1004.2 3.6
15/03:00am 11.2 9.3 9.1 87 1.1 SSE 9 13 5 7 1004.3 1004.3 3.6
15/02:30am 10.8 8.9 9.2 90 0.8 SSE 9 13 5 7 1004.2 1004.2 3.6
15/02:00am 11.1 9.2 9.2 88 1.0 SE 9 15 5 8 1004.3 1004.3 3.6
15/01:30am 11.2 9.0 9.5 89 0.9 SE 11 15 6 8 1004.6 1004.6 3.6
15/01:00am 11.3 9.2 9.7 90 0.8 ESE 11 17 6 9 1004.8 1004.8 3.6
15/12:30am 11.4 9.0 10.0 91 0.7 SE 13 19 7 10 1005.0 1005.0 3.6
15/12:00am 11.4 8.7 10.5 94 0.5 SE 15 20 8 11 1005.3 1005.3 3.6
 
Date/Time
EDT
Temp
°C
App
Temp
°C
Dew
Point
°C
Rel
Hum
%
Delta-T
°C
Wind Press
QNH
hPa
Press
MSL
hPa
Rain since
9am
mm
Dir  Spd
km/h
Gust
km/h
Spd
kts
Gust
kts
14/11:30pm 11.1 8.8 10.3 95 0.4 SSE 13 17 7 9 1005.6 1005.6 3.2
14/11:00pm 11.0 7.4 9.9 93 0.6 SE 19 22 10 12 1005.9 1005.9 2.4
14/10:30pm 11.3 8.1 9.9 91 0.7 SE 17 22 9 12 1006.1 1006.1 2.0
14/10:00pm 12.1 10.4 9.8 86 1.2 ENE 9 20 5 11 1005.9 1005.9 1.8
14/09:30pm 12.5 10.3 9.5 82 1.5 ESE 11 17 6 9 1005.7 1005.7 1.8
14/09:00pm 12.3 10.4 9.1 81 1.6 ESE 9 15 5 8 1005.5 1005.5 1.8
14/08:30pm 12.2 10.3 9.0 81 1.6 SE 9 15 5 8 1005.0 1005.0 1.8
14/08:00pm 12.2 10.3 9.0 81 1.6 SE 9 13 5 7 1004.6 1004.6 1.8
14/07:30pm 12.4 9.7 9.1 80 1.7 SE 13 19 7 10 1004.3 1004.3 1.8
14/07:00pm 13.0 10.8 9.3 78 1.9 SSE 11 17 6 9 1003.9 1003.9 1.8
14/06:30pm 14.0 12.4 10.2 78 2.0 SE 9 15 5 8 1003.7 1003.7 1.8
14/06:00pm 12.7 11.1 10.1 84 1.3 SW 9 13 5 7 1003.8 1003.8 1.8
14/05:30pm 13.1 11.8 9.9 81 1.6 S 7 11 4 6 1003.7 1003.7 1.8
14/05:00pm 12.7 9.7 9.2 79 1.8 SE 15 19 8 10 1003.5 1003.5 1.8
14/04:30pm 12.8 10.2 9.4 80 1.7 SE 13 17 7 9 1003.5 1003.5 1.8
14/04:00pm 12.4 9.9 9.6 83 1.4 SSE 13 17 7 9 1003.6 1003.6 1.8
14/03:30pm 12.8 10.7 9.6 81 1.6 SSE 11 15 6 8 1003.5 1003.5 1.2
14/03:00pm 15.6 13.4 9.5 67 3.2 S 11 15 6 8 1003.6 1003.6 0.0
14/02:30pm 15.9 13.3 9.3 65 3.4 SW 13 17 7 9 1003.7 1003.7 0.0
14/02:00pm 16.2 13.8 10.1 67 3.2 SW 13 17 7 9 1003.8 1003.8 0.0
14/01:30pm 15.7 13.4 10.5 71 2.7 SW 13 19 7 10 1003.8 1003.8 0.0
14/01:00pm 15.3 12.5 10.1 71 2.7 WSW 15 22 8 12 1003.8 1003.8 0.0
14/12:30pm 15.5 13.3 9.2 66 3.2 WNW 11 17 6 9 1004.0 1004.0 0.0
14/12:00pm 15.5 12.5 7.5 59 4.0 WNW 13 22 7 12 1004.0 1004.0 0.0
14/11:30am 14.7 12.2 8.0 64 3.3 WNW 11 19 6 10 1004.3 1004.3 0.0
14/11:00am 14.7 12.7 10.1 74 2.4 WNW 11 20 6 11 1004.4 1004.4 0.0
14/10:30am 12.6 10.6 10.0 84 1.3 NW 11 19 6 10 1004.5 1004.5 0.0
14/10:00am 11.8 9.8 10.2 90 0.8 NW 11 17 6 9 1004.6 1004.6 0.0
14/09:30am 11.0 9.6 10.8 99 0.1 NW 9 15 5 8 1004.4 1004.4 0.0
14/09:00am 10.1 8.5 10.1 100 0.0 NNW 9 17 5 9 1004.3 1004.3 15.4
14/08:30am 9.1 7.2 9.0 99 0.0 NNW 9 19 5 10 1004.2 1004.2 15.4
14/08:00am 8.7 6.3 8.6 99 0.0 NNW 11 17 6 9 1004.1 1004.1 15.4
14/07:30am 8.5 7.0 8.4 99 0.0 NNW 6 11 3 6 1003.9 1003.9 15.4
14/07:00am 8.5 6.4 8.4 99 0.0 NW 9 13 5 7 1003.6 1003.6 15.4
14/06:30am 8.6 7.1 8.5 99 0.0 NW 6 9 3 5 1003.5 1003.5 15.4
14/06:00am 8.7 6.7 8.6 99 0.0 NW 9 13 5 7 1003.3 1003.3 15.4
14/05:30am 8.8 7.4 8.7 99 0.0 NNW 6 9 3 5 1003.6 1003.6 15.4
14/05:00am 8.9 7.3 8.8 99 0.0 NNW 7 11 4 6 1003.7 1003.7 15.4
14/04:30am 9.1 7.6 9.0 99 0.0 NNW 7 9 4 5 1003.9 1003.9 15.4
14/04:00am 9.4 7.6 9.3 99 0.0 N 9 11 5 6 1004.1 1004.1 15.4
14/03:30am 9.6 8.8 9.5 99 0.0 N 4 7 2 4 1004.3 1004.3 15.4
14/03:00am 9.8 8.1 9.7 99 0.1 N 9 13 5 7 1004.5 1004.5 15.4
14/02:30am 9.9 8.6 9.8 99 0.1 N 7 11 4 6 1004.9 1004.9 15.4
14/02:00am 10.0 8.9 9.9 99 0.1 N 6 7 3 4 1005.1 1005.1 15.4
14/01:30am 10.2 9.1 10.1 99 0.1 N 6 9 3 5 1005.6 1005.6 15.4
14/01:00am 10.3 9.6 10.1 99 0.1 N 4 6 2 3 1005.5 1005.5 15.4
14/12:30am 10.5 9.3 10.3 99 0.1 N 7 11 4 6 1005.7 1005.7 15.4
14/12:00am 10.6 10.4 10.4 99 0.1 N 2 6 1 3 1005.5 1005.5 15.4
 
Date/Time
EDT
Temp
°C
App
Temp
°C
Dew
Point
°C
Rel
Hum
%
Delta-T
°C
Wind Press
QNH
hPa
Press
MSL
hPa
Rain since
9am
mm
Dir  Spd
km/h
Gust
km/h
Spd
kts
Gust
kts
13/11:30pm 10.9 10.4 10.7 99 0.1 NE 4 6 2 3 1005.9 1005.9 15.4
13/11:00pm 11.2 10.4 11.0 99 0.1 NE 6 9 3 5 1006.3 1006.3 15.4
13/10:30pm 11.4 10.6 11.2 99 0.1 NE 6 11 3 6 1006.5 1006.5 15.4
13/10:00pm 11.6 10.7 11.4 99 0.1 NE 7 13 4 7 1006.8 1006.8 15.4
13/09:30pm 11.2 10.4 11.0 99 0.1 NE 6 11 3 6 1006.7 1006.7 15.4
13/09:00pm 11.0 10.5 10.8 99 0.1 ENE 4 6 2 3 1006.6 1006.6 15.4
13/08:30pm 11.2 11.2 11.0 99 0.1 ENE 2 4 1 2 1006.5 1006.5 15.2
13/08:00pm 11.2 10.4 11.0 99 0.1 SE 6 7 3 4 1005.8 1005.8 15.0
13/07:30pm 11.1 10.1 10.9 99 0.1 S 7 11 4 6 1005.7 1005.7 14.0
13/07:00pm 11.3 10.0 11.1 99 0.1 SW 9 11 5 6 1005.7 1005.7 12.6
13/06:30pm 11.1 8.9 10.9 99 0.1 SW 13 19 7 10 1005.8 1005.8 11.6
13/06:00pm 11.4 8.0 11.2 99 0.1 WSW 20 28 11 15 1005.8 1005.8 10.2
13/05:30pm 11.6 7.5 11.4 99 0.1 WSW 24 32 13 17 1005.4 1005.4 8.0
13/05:00pm 12.5 10.3 12.0 97 0.3 WSW 15 20 8 11 1005.2 1005.2 3.6
13/04:30pm 12.8 10.8 11.4 91 0.7 W 13 22 7 12 1005.1 1005.1 1.8
13/04:00pm 14.6 11.3 9.6 72 2.6 WNW 17 30 9 16 1004.6 1004.6 0.0
13/03:30pm 17.9 13.5 10.3 61 4.1 NNE 24 35 13 19 1003.4 1003.4 0.0
13/03:00pm 18.6 15.4 11.2 62 4.0 NE 19 32 10 17 1003.3 1003.3 0.0
13/02:30pm 18.2 14.6 10.6 61 4.1 NNE 20 35 11 19 1004.0 1004.0 0.0
13/02:00pm 20.6 16.4 11.0 54 5.3 NNE 24 41 13 22 1004.2 1004.2 0.0
13/01:50pm 19.6 14.5 10.6 56 4.9 NNE 28 46 15 25 1004.2 1004.2 0.0
13/01:30pm 20.0 14.9 10.7 55 5.1 NNE 28 46 15 25 1004.5 1004.5 0.0
13/01:00pm 19.8 14.7 10.5 55 5.0 NNE 28 46 15 25 1004.8 1004.8 0.0
13/12:41pm 19.9 14.6 11.4 58 4.7 NNE 30 50 16 27 1004.9 1004.9 0.0
13/12:30pm 19.7 15.1 11.2 58 4.7 NNE 26 43 14 23 1005.2 1005.2 0.0
13/12:00pm 19.3 14.4 11.3 60 4.4 NNE 28 41 15 22 1005.5 1005.5 0.0
13/11:30am 18.6 14.0 11.2 62 4.0 NNE 26 43 14 23 1005.8 1005.8 0.0
13/11:21am 18.5 13.5 11.1 62 4.0 NNE 28 48 15 26 1005.9 1005.9 0.0
13/11:00am 17.8 13.2 10.9 64 3.7 NNE 26 48 14 26 1006.0 1006.0 0.0
13/10:52am 17.7 12.7 11.0 65 3.6 NNE 28 48 15 26 1006.1 1006.1 0.0
13/10:30am 17.4 12.5 11.2 67 3.4 NNE 28 46 15 25 1006.5 1006.5 0.0
13/10:00am 16.5 11.9 11.0 70 3.0 NNE 26 41 14 22 1006.7 1006.7 0.0
13/09:30am 15.3 11.8 10.9 75 2.3 NNE 20 35 11 19 1006.8 1006.8 0.0
13/09:00am 14.2 10.1 10.2 77 2.1 NNE 22 33 12 18 1007.2 1007.2 0.0
13/08:30am 13.5 9.9 9.7 78 1.9 NE 19 35 10 19 1007.3 1007.3 0.0
13/08:00am 12.9 9.2 9.4 79 1.8 NE 19 35 10 19 1007.4 1007.4 0.0
13/07:30am 12.2 8.4 9.2 82 1.5 NE 19 33 10 18 1007.5 1007.5 0.0

Other formats

Comma delimited format used in spreadsheet applications
http://www.bom.gov.au/fwo/IDV60801/IDV60801.94830.axf

JavaScript Object Notation format (JSON) in row-major order
http://www.bom.gov.au/fwo/IDV60801/IDV60801.94830.json

Data quality

Most of these data are generated automatically and are frequently updated. Quality checks on data are not normally performed. It is possible for incorrect values to appear. Refer to information at About Latest Weather Observations and please check the disclaimer before using these data.